Time;durP1;ratioP1;P1;durP2;ratioP2;P2;SDS_P1;SDS_P2;PMS_P1;PMS_P2;Temp;Humidity;BMP_temperature;BMP_pressure;BME280_temperature;BME280_humidity;BME280_pressure;Samples;Min_cycle;Max_cycle;Signal;HPM_P1;HPM_P2
2022/09/17 00:03:02;;;;;;;3.90;3.60;;;21.80;91.30;;;;;;10490645;28;20238;-90
2022/09/17 00:08:06;;;;;;;4.20;3.88;;;21.70;91.30;;;;;;10460666;28;20248;-90
2022/09/17 00:13:10;;;;;;;5.30;4.55;;;21.70;91.40;;;;;;10475688;28;20264;-90
2022/09/17 00:18:15;;;;;;;4.22;3.83;;;21.60;91.70;;;;;;10490457;28;20281;-90
2022/09/17 00:23:17;;;;;;;4.15;3.75;;;21.50;92.10;;;;;;10472438;28;20317;-90
2022/09/17 00:28:20;;;;;;;4.32;3.92;;;21.50;91.80;;;;;;10471280;28;20214;-90
2022/09/17 00:33:22;;;;;;;4.78;3.70;;;21.60;91.70;;;;;;10454918;28;20271;-90
2022/09/17 00:38:25;;;;;;;4.82;4.20;;;21.60;91.70;;;;;;10490522;28;20295;-90
2022/09/17 00:43:41;;;;;;;4.57;4.18;;;21.50;92.10;;;;;;10472270;28;20291;-89
2022/09/17 00:48:45;;;;;;;6.75;4.30;;;21.60;91.70;;;;;;10491490;28;20295;-90
2022/09/17 00:53:48;;;;;;;3.67;3.35;;;21.50;92.00;;;;;;10488065;28;20284;-90
2022/09/17 00:58:51;;;;;;;5.72;4.78;;;21.60;91.60;;;;;;10480045;28;20246;-90
2022/09/17 01:03:54;;;;;;;3.78;3.15;;;21.50;91.80;;;;;;10462603;28;20284;-90
2022/09/17 01:09:27;;;;;;;4.38;3.75;;;21.40;91.80;;;;;;10519237;28;20278;-90
2022/09/17 01:14:57;;;;;;;4.57;4.05;;;21.20;92.50;;;;;;10469878;28;20624;-91
2022/09/17 01:20:30;;;;;;;5.30;3.70;;;21.30;92.60;;;;;;10462097;28;20231;-89
2022/09/17 01:25:48;;;;;;;3.95;3.40;;;21.10;93.10;;;;;;10478172;28;20719;-90
2022/09/17 01:31:16;;;;;;;4.53;3.45;;;21.10;93.20;;;;;;10485977;28;20254;-91
2022/09/17 01:36:24;;;;;;;4.07;3.75;;;21.20;93.00;;;;;;10473008;28;20206;-90
2022/09/17 01:41:42;;;;;;;4.57;3.60;;;21.20;92.90;;;;;;10461598;28;20228;-90
2022/09/17 01:46:48;;;;;;;3.75;3.33;;;21.30;92.60;;;;;;10460107;28;20218;-90
2022/09/17 01:51:53;;;;;;;4.45;3.70;;;21.20;92.20;;;;;;10481816;28;20727;-90
2022/09/17 01:57:10;;;;;;;4.82;3.90;;;21.10;93.40;;;;;;10480391;28;20262;-90
2022/09/17 02:02:24;;;;;;;3.80;3.50;;;21.20;93.10;;;;;;10476608;28;20210;-91
2022/09/17 02:07:30;;;;;;;4.70;3.80;;;21.30;92.60;;;;;;10459932;28;20257;-90
2022/09/17 02:12:39;;;;;;;3.70;3.33;;;21.20;93.10;;;;;;10459504;28;20260;-90
2022/09/17 02:17:48;;;;;;;4.28;3.60;;;21.20;93.00;;;;;;10453274;28;20234;-91
2022/09/17 02:23:04;;;;;;;3.78;3.47;;;21.20;93.00;;;;;;10420633;28;20206;-90
2022/09/17 02:28:16;;;;;;;4.18;3.67;;;21.30;92.90;;;;;;10506878;28;20282;-90
2022/09/17 02:33:20;;;;;;;5.57;3.75;;;21.10;93.50;;;;;;10502556;28;20264;-90
2022/09/17 02:38:28;;;;;;;3.88;3.20;;;20.90;94.20;;;;;;10494119;28;20362;-90
2022/09/17 02:43:48;;;;;;;3.92;3.45;;;21.20;93.70;;;;;;10475739;28;20242;-90
2022/09/17 02:49:07;;;;;;;3.63;3.33;;;21.20;93.50;;;;;;10458689;28;20804;-90
2022/09/17 02:54:41;;;;;;;3.60;3.28;;;21.30;93.50;;;;;;10460147;28;20337;-90
2022/09/17 02:59:52;;;;;;;4.10;3.75;;;21.10;93.70;;;;;;10433758;28;20241;-90
2022/09/17 03:04:55;;;;;;;4.07;3.35;;;21.20;94.00;;;;;;10489833;28;20921;-90
2022/09/17 03:09:59;;;;;;;3.65;3.35;;;21.20;93.90;;;;;;10492146;28;20248;-90
2022/09/17 03:15:02;;;;;;;4.65;3.50;;;20.90;95.10;;;;;;10456560;28;20214;-90
2022/09/17 03:20:05;;;;;;;3.78;3.38;;;21.20;94.40;;;;;;10457113;28;20584;-91
2022/09/17 03:25:08;;;;;;;3.75;3.38;;;21.10;94.60;;;;;;10473903;28;20845;-90
2022/09/17 03:30:11;;;;;;;3.45;3.15;;;21.20;94.40;;;;;;10473444;28;20202;-91
2022/09/17 03:35:13;;;;;;;3.47;3.13;;;21.10;94.40;;;;;;10457160;28;20251;-91
2022/09/17 03:40:16;;;;;;;3.58;3.28;;;21.10;94.60;;;;;;10474012;28;20234;-90
2022/09/17 03:45:18;;;;;;;3.03;2.70;;;21.10;94.90;;;;;;10486443;28;20724;-90
2022/09/17 03:50:21;;;;;;;3.15;2.88;;;21.00;94.60;;;;;;10456346;28;20311;-90
2022/09/17 03:55:24;;;;;;;3.22;2.90;;;20.80;95.60;;;;;;10473288;28;20206;-90
2022/09/17 04:00:27;;;;;;;4.15;3.25;;;21.00;95.30;;;;;;10457949;28;20229;-90
2022/09/17 04:05:29;;;;;;;3.30;3.00;;;21.00;95.40;;;;;;10512582;28;20258;-89
2022/09/17 04:10:32;;;;;;;2.70;2.45;;;21.00;95.30;;;;;;10489658;28;20210;-90
2022/09/17 04:15:34;;;;;;;2.45;2.25;;;20.90;95.70;;;;;;10473571;28;20260;-90
2022/09/17 04:20:37;;;;;;;3.20;2.90;;;20.60;96.70;;;;;;10472600;28;20230;-90
2022/09/17 04:25:40;;;;;;;3.47;3.17;;;20.80;96.20;;;;;;10477303;28;20311;-90
2022/09/17 04:30:43;;;;;;;3.28;3.00;;;20.90;95.80;;;;;;10472659;28;20272;-89
2022/09/17 04:35:46;;;;;;;3.55;3.25;;;21.00;95.70;;;;;;10474956;28;20275;-90
2022/09/17 04:40:50;;;;;;;2.88;2.40;;;21.10;95.60;;;;;;10463108;28;20202;-90
2022/09/17 04:45:52;;;;;;;4.22;2.92;;;21.00;95.80;;;;;;10463412;28;20684;-89
2022/09/17 04:50:55;;;;;;;3.03;2.83;;;21.00;95.80;;;;;;10459556;28;20262;-90
2022/09/17 04:55:58;;;;;;;4.35;2.83;;;20.80;96.30;;;;;;10454539;28;20272;-89
2022/09/17 05:01:03;;;;;;;3.28;2.65;;;20.70;96.70;;;;;;10461804;28;20246;-90
2022/09/17 05:06:09;;;;;;;3.53;3.17;;;20.80;96.60;;;;;;10455590;28;20758;-89
2022/09/17 05:11:11;;;;;;;3.20;2.90;;;21.00;96.20;;;;;;10467262;28;20303;-90
2022/09/17 05:16:14;;;;;;;2.72;2.53;;;20.80;96.50;;;;;;10495952;28;20238;-89
2022/09/17 05:21:17;;;;;;;3.30;3.00;;;20.90;96.40;;;;;;10478389;28;20279;-90
2022/09/17 05:26:20;;;;;;;2.25;1.95;;;20.80;96.50;;;;;;10461420;28;20307;-90
2022/09/17 05:31:25;;;;;;;3.47;3.17;;;20.80;96.60;;;;;;10495668;28;20624;-90
2022/09/17 05:36:28;;;;;;;2.90;2.60;;;20.80;96.70;;;;;;10475921;28;20266;-90
2022/09/17 05:41:30;;;;;;;3.17;2.88;;;20.80;97.00;;;;;;10507090;28;20202;-89
2022/09/17 05:46:33;;;;;;;2.88;2.47;;;20.90;96.40;;;;;;10485947;28;20249;-89
2022/09/17 05:51:36;;;;;;;3.30;3.03;;;20.80;96.80;;;;;;10475300;28;20602;-90
2022/09/17 05:56:38;;;;;;;2.70;2.50;;;20.80;96.90;;;;;;10464906;28;20230;-90
2022/09/17 06:01:41;;;;;;;2.75;2.55;;;20.90;96.60;;;;;;10492410;28;20238;-89
2022/09/17 06:06:46;;;;;;;3.55;2.70;;;20.80;96.60;;;;;;10460484;28;20307;-91
2022/09/17 06:11:49;;;;;;;2.40;2.20;;;20.70;96.70;;;;;;10483690;28;20299;-90
2022/09/17 06:16:52;;;;;;;4.65;1.98;;;20.60;97.40;;;;;;10420992;28;20264;-89
2022/09/17 06:21:54;;;;;;;2.28;2.10;;;20.50;97.10;;;;;;10458726;28;20241;-89
2022/09/17 06:26:57;;;;;;;2.90;2.10;;;20.70;96.40;;;;;;10486796;28;20253;-89
2022/09/17 06:32:01;;;;;;;2.50;1.27;;;20.40;97.50;;;;;;10482166;28;20230;-89
2022/09/17 06:37:04;;;;;;;5.30;1.63;;;15.10;99.90;;;;;;10478251;28;20206;-96
2022/09/17 06:42:07;;;;;;;2.57;2.13;;;17.60;99.90;;;;;;10478456;28;20198;-93
2022/09/17 06:47:13;;;;;;;4.23;1.73;;;18.20;99.90;;;;;;10494747;28;20311;-95
2022/09/17 06:52:16;;;;;;;2.53;1.40;;;18.80;99.90;;;;;;10461387;28;20226;-96
2022/09/17 06:57:18;;;;;;;1.92;1.23;;;19.70;99.90;;;;;;10461369;28;20198;-96
2022/09/17 07:02:21;;;;;;;1.58;1.30;;;20.10;99.20;;;;;;10461644;28;20224;-96
2022/09/17 07:07:23;;;;;;;1.60;1.27;;;20.10;99.40;;;;;;10461069;28;20230;-95
2022/09/17 07:12:26;;;;;;;5.20;1.45;;;19.90;99.40;;;;;;10476861;28;20555;-96
2022/09/17 07:17:28;;;;;;;3.53;1.60;;;20.00;99.60;;;;;;10462375;28;20206;-96
2022/09/17 07:22:31;;;;;;;5.60;3.00;;;19.70;99.90;;;;;;10462230;28;20214;-95
2022/09/17 07:27:33;;;;;;;3.63;1.20;;;20.10;98.80;;;;;;10475321;28;20257;-96
2022/09/17 07:32:36;;;;;;;3.95;2.05;;;20.10;99.20;;;;;;10475628;28;20202;-96
2022/09/17 07:37:38;;;;;;;3.00;1.67;;;19.60;99.90;;;;;;10474074;28;20198;-96
2022/09/17 07:42:41;;;;;;;4.50;2.10;;;20.30;98.80;;;;;;10474747;28;20202;-95
2022/09/17 07:47:43;;;;;;;2.95;2.10;;;20.40;98.20;;;;;;10475061;28;20257;-94
2022/09/17 07:52:46;;;;;;;6.18;3.40;;;20.20;99.00;;;;;;10474878;28;20194;-95
2022/09/17 07:57:50;;;;;;;2.72;2.25;;;19.80;99.90;;;;;;10476655;28;20198;-94
2022/09/17 08:02:56;;;;;;;3.35;2.58;;;20.00;99.60;;;;;;10482753;28;20214;-95
2022/09/17 08:07:59;;;;;;;1.92;1.65;;;20.30;99.00;;;;;;10481692;28;20286;-93
2022/09/17 08:13:02;;;;;;;1.50;1.20;;;20.40;98.50;;;;;;10481624;28;20264;-95
2022/09/17 08:18:04;;;;;;;4.72;2.50;;;20.60;98.10;;;;;;10481685;28;20202;-94
2022/09/17 08:23:07;;;;;;;2.13;1.92;;;20.60;98.10;;;;;;10481474;28;20705;-95
2022/09/17 08:28:10;;;;;;;2.58;1.90;;;20.40;98.90;;;;;;10464472;28;20252;-94
2022/09/17 08:33:12;;;;;;;2.20;1.30;;;20.50;98.50;;;;;;10481203;28;20299;-95
2022/09/17 08:38:15;;;;;;;2.63;1.70;;;20.90;97.50;;;;;;10465001;28;20582;-96
2022/09/17 08:43:18;;;;;;;1.80;1.58;;;21.00;97.70;;;;;;10464805;28;20210;-95
2022/09/17 08:48:24;;;;;;;2.00;1.80;;;20.90;97.30;;;;;;10464672;28;20244;-95
2022/09/17 08:53:44;;;;;;;2.67;1.98;;;20.80;97.80;;;;;;10482013;28;20202;-96
2022/09/17 08:58:56;;;;;;;1.55;1.45;;;20.60;98.10;;;;;;10451409;28;20206;-96
2022/09/17 09:04:31;;;;;;;2.28;1.52;;;20.70;98.10;;;;;;10480489;28;20758;-95
2022/09/17 09:09:40;;;;;;;4.68;2.10;;;20.60;98.10;;;;;;10479215;28;20198;-95
2022/09/17 09:14:47;;;;;;;2.00;1.70;;;20.50;99.10;;;;;;10484233;28;20202;-94
2022/09/17 09:19:53;;;;;;;3.75;1.70;;;20.60;98.50;;;;;;10446302;28;20261;-95
2022/09/17 09:25:11;;;;;;;2.53;1.95;;;20.50;99.30;;;;;;10460748;28;20258;-95
2022/09/17 09:30:15;;;;;;;7.47;2.40;;;20.90;98.00;;;;;;10459289;28;20291;-92
2022/09/17 09:35:31;;;;;;;8.27;3.20;;;19.10;99.90;;;;;;10525117;28;20232;-94
2022/09/17 09:40:49;;;;;;;5.07;3.00;;;20.70;99.90;;;;;;10560487;28;20205;-94
2022/09/17 09:46:24;;;;;;;5.18;4.68;;;22.00;99.00;;;;;;10479014;28;20279;-93
2022/09/17 09:51:41;;;;;;;6.00;4.80;;;22.40;97.60;;;;;;10486188;28;20296;-95
2022/09/17 09:56:56;;;;;;;6.07;5.13;;;23.00;95.30;;;;;;10511425;23;20279;-81
2022/09/17 10:01:58;;;;;;;7.35;5.90;;;23.10;95.20;;;;;;10529698;28;20605;-80
2022/09/17 10:07:06;;;;;;;6.00;4.78;;;23.70;93.50;;;;;;10537234;28;20882;-82
2022/09/17 10:12:09;;;;;;;8.52;5.97;;;23.30;93.80;;;;;;10533032;28;20279;-81
2022/09/17 10:17:22;;;;;;;8.07;6.53;;;23.10;93.80;;;;;;10536252;28;20587;-82
2022/09/17 10:22:47;;;;;;;6.97;5.63;;;23.30;93.10;;;;;;10499791;28;20189;-81
2022/09/17 10:27:50;;;;;;;7.88;6.60;;;23.80;92.60;;;;;;10506180;28;20282;-80
2022/09/17 10:33:12;;;;;;;7.15;5.88;;;23.70;92.40;;;;;;10514829;28;20669;-80
2022/09/17 10:38:30;;;;;;;5.72;4.88;;;23.80;91.40;;;;;;10511326;28;20229;-80
2022/09/17 10:43:32;;;;;;;6.93;4.55;;;24.20;91.20;;;;;;10509342;28;20237;-81
2022/09/17 10:48:43;;;;;;;6.28;5.68;;;24.20;90.30;;;;;;10521833;28;20218;-81
2022/09/17 10:54:39;;;;;;;6.93;5.80;;;24.10;91.10;;;;;;10519060;28;20262;-80
2022/09/17 10:59:57;;;;;;;5.95;4.93;;;24.60;89.70;;;;;;10488643;28;20233;-83
2022/09/17 11:05:22;;;;;;;6.80;6.18;;;24.20;90.50;;;;;;10497041;28;20647;-83
2022/09/17 11:10:52;;;;;;;7.57;5.82;;;24.20;90.40;;;;;;10503138;28;20782;-83
2022/09/17 11:16:12;;;;;;;7.97;6.40;;;24.00;90.90;;;;;;10483709;28;20303;-81
2022/09/17 11:21:47;;;;;;;5.65;5.10;;;23.80;91.50;;;;;;10511511;28;20237;-81
2022/09/17 11:26:58;;;;;;;2.63;1.05;;;23.70;91.90;;;;;;10492087;28;20310;-81
2022/09/17 11:32:28;;;;;;;3.75;1.63;;;21.50;95.30;;;;;;10513048;28;20255;-81
2022/09/17 11:37:38;;;;;;;3.10;2.60;;;22.00;94.00;;;;;;10517151;28;20251;-81
2022/09/17 11:42:47;;;;;;;3.53;3.00;;;22.80;91.90;;;;;;10511510;28;20638;-81
2022/09/17 11:48:12;;;;;;;4.13;3.70;;;22.80;92.00;;;;;;10494086;28;20267;-81
2022/09/17 11:53:36;;;;;;;4.10;3.70;;;23.40;90.30;;;;;;10509080;28;20654;-82
2022/09/17 11:58:51;;;;;;;4.28;3.72;;;23.30;90.40;;;;;;10504885;28;20212;-85
2022/09/17 12:04:13;;;;;;;9.18;4.07;;;23.00;91.40;;;;;;10524711;28;20639;-87
2022/09/17 12:09:24;;;;;;;5.75;3.47;;;23.40;87.80;;;;;;10490613;28;20253;-86
2022/09/17 12:14:37;;;;;;;4.50;3.72;;;23.40;90.20;;;;;;10510046;28;20234;-83
2022/09/17 12:19:43;;;;;;;4.78;3.47;;;23.10;91.60;;;;;;10467422;28;20237;-83
2022/09/17 12:24:53;;;;;;;8.02;3.95;;;23.40;90.70;;;;;;10513899;28;20963;-84
2022/09/17 12:30:12;;;;;;;4.28;3.88;;;23.50;90.40;;;;;;10531702;28;20257;-85
2022/09/17 12:35:49;;;;;;;4.57;3.72;;;23.20;90.50;;;;;;10508854;28;20266;-85
2022/09/17 12:41:12;;;;;;;5.70;3.90;;;23.00;92.00;;;;;;10332373;28;20231;-84
2022/09/17 12:46:36;;;;;;;4.40;3.65;;;23.10;91.30;;;;;;10364287;28;20757;-84
2022/09/17 12:52:18;;;;;;;4.00;3.60;;;23.10;91.50;;;;;;10351752;28;20294;-81
2022/09/17 12:57:38;;;;;;;5.18;4.10;;;23.20;91.60;;;;;;10378895;23;20314;-84
2022/09/17 13:02:57;;;;;;;4.53;3.05;;;23.30;91.60;;;;;;10506635;28;20225;-84
2022/09/17 13:08:17;;;;;;;4.32;3.80;;;23.00;92.00;;;;;;10483959;28;20280;-85
2022/09/17 13:13:36;;;;;;;5.32;4.35;;;23.10;87.90;;;;;;10456809;28;20619;-84
2022/09/17 13:18:51;;;;;;;6.15;4.05;;;23.00;90.50;;;;;;10536465;28;20225;-84
2022/09/17 13:24:18;;;;;;;4.70;4.20;;;22.90;92.60;;;;;;10504090;28;20218;-84
2022/09/17 13:29:46;;;;;;;2.63;2.42;;;22.90;92.50;;;;;;10492565;28;20805;-84
2022/09/17 13:34:48;;;;;;;3.33;1.67;;;22.80;92.00;;;;;;10471742;28;20226;-84
2022/09/17 13:39:52;;;;;;;4.38;3.90;;;22.10;91.80;;;;;;10495701;28;20594;-84
2022/09/17 13:45:10;;;;;;;6.50;3.20;;;22.40;92.90;;;;;;10144185;28;9999638;-84
2022/09/17 13:50:49;;;;;;;4.30;2.65;;;22.20;94.20;;;;;;10510113;28;20260;-84
2022/09/17 13:56:03;;;;;;;5.15;3.50;;;22.00;92.90;;;;;;10480103;28;20238;-84
2022/09/17 14:01:10;;;;;;;5.18;3.97;;;21.90;94.30;;;;;;10491549;28;20222;-84
2022/09/17 14:06:20;;;;;;;3.28;2.97;;;22.30;94.20;;;;;;10492522;28;20245;-84
2022/09/17 14:11:24;;;;;;;4.22;3.83;;;21.30;95.70;;;;;;10492680;23;20720;-81
2022/09/17 14:16:50;;;;;;;4.45;2.97;;;22.30;94.70;;;;;;10532884;28;20237;-82
2022/09/17 14:21:56;;;;;;;4.05;3.65;;;21.70;90.20;;;;;;10532459;28;20683;-82
2022/09/17 14:27:17;;;;;;;4.68;4.20;;;21.40;96.80;;;;;;10533060;28;20256;-82
2022/09/17 14:32:44;;;;;;;3.25;2.95;;;21.40;97.20;;;;;;10531529;28;20229;-82
2022/09/17 14:37:59;;;;;;;5.80;3.55;;;21.10;94.10;;;;;;10532172;28;20229;-82
2022/09/17 14:43:02;;;;;;;4.00;3.08;;;21.40;96.70;;;;;;10528138;28;20259;-82
2022/09/17 14:48:28;;;;;;;3.88;3.50;;;22.00;95.50;;;;;;10522709;28;20249;-82
2022/09/17 14:53:30;;;;;;;6.55;1.85;;;22.40;94.30;;;;;;10532347;28;20657;-82
2022/09/17 14:58:39;;;;;;;3.58;1.20;;;22.10;90.70;;;;;;10533378;28;20237;-82
2022/09/17 15:03:41;;;;;;;4.15;1.27;;;21.00;91.70;;;;;;10495081;28;20225;-82
2022/09/17 15:08:44;;;;;;;1.75;1.20;;;21.60;90.30;;;;;;10533340;28;20271;-82
2022/09/17 15:13:50;;;;;;;5.35;2.03;;;21.30;90.90;;;;;;10499598;28;20286;-82
2022/09/17 15:18:57;;;;;;;4.05;1.00;;;21.00;93.80;;;;;;10534271;28;20193;-82
2022/09/17 15:24:25;;;;;;;3.63;1.35;;;20.70;92.50;;;;;;10531903;28;20263;-82
2022/09/17 15:29:31;;;;;;;1.95;1.17;;;22.00;92.00;;;;;;10532305;28;20649;-82
2022/09/17 15:34:33;;;;;;;3.95;1.25;;;21.90;91.80;;;;;;10506816;28;20271;-81
2022/09/17 15:39:41;;;;;;;3.28;1.65;;;21.20;91.50;;;;;;10473329;28;20214;-81
2022/09/17 15:44:44;;;;;;;3.95;1.98;;;21.90;91.90;;;;;;10531392;28;20694;-81
2022/09/17 15:50:22;;;;;;;2.78;1.67;;;21.30;93.60;;;;;;10532974;28;20249;-81
2022/09/17 15:55:32;;;;;;;6.65;2.35;;;21.10;92.70;;;;;;10514274;28;20286;-82
2022/09/17 16:00:34;;;;;;;4.57;2.08;;;21.50;93.30;;;;;;10529090;28;20263;-82
2022/09/17 16:05:45;;;;;;;3.20;2.15;;;22.00;91.60;;;;;;10523509;28;20233;-83
2022/09/17 16:10:48;;;;;;;3.20;1.58;;;22.00;92.40;;;;;;10513595;28;20705;-82
2022/09/17 16:15:50;;;;;;;3.28;1.83;;;21.10;95.80;;;;;;10496597;28;20241;-82
2022/09/17 16:20:53;;;;;;;3.33;2.28;;;21.30;95.20;;;;;;10538484;28;20618;-82
2022/09/17 16:25:56;;;;;;;3.30;1.92;;;21.30;94.80;;;;;;10541283;28;20247;-81
2022/09/17 16:30:59;;;;;;;4.50;2.42;;;21.80;93.80;;;;;;10513096;28;20250;-81
2022/09/17 16:36:01;;;;;;;4.57;1.80;;;21.80;93.30;;;;;;10531277;28;20679;-81
2022/09/17 16:41:04;;;;;;;6.38;2.40;;;21.80;93.40;;;;;;10540896;28;20194;-81
2022/09/17 16:46:09;;;;;;;2.60;2.08;;;21.90;93.10;;;;;;10540398;28;20249;-81
2022/09/17 16:51:13;;;;;;;6.25;2.08;;;21.70;93.90;;;;;;10516450;28;20246;-82
2022/09/17 16:56:16;;;;;;;3.55;2.20;;;21.80;92.70;;;;;;10520353;28;20233;-82
2022/09/17 17:01:19;;;;;;;2.83;2.47;;;21.90;93.60;;;;;;10511921;28;20229;-81
2022/09/17 17:06:21;;;;;;;5.10;2.35;;;21.90;93.40;;;;;;10511435;28;20206;-81
2022/09/17 17:11:24;;;;;;;5.78;2.05;;;20.30;99.40;;;;;;10538541;28;20278;-82
2022/09/17 17:16:26;;;;;;;6.43;2.25;;;19.40;99.90;;;;;;10520848;28;20286;-81
2022/09/17 17:21:28;;;;;;;8.63;2.28;;;20.20;99.90;;;;;;10504363;28;20233;-81
2022/09/17 17:26:32;;;;;;;6.93;2.08;;;21.10;99.90;;;;;;10536921;28;20617;-81
2022/09/17 17:31:35;;;;;;;9.70;2.63;;;21.20;99.90;;;;;;10502175;28;20202;-81
2022/09/17 17:36:38;;;;;;;3.72;2.33;;;21.10;99.90;;;;;;10511310;28;20229;-81
2022/09/17 17:41:41;;;;;;;4.53;2.05;;;21.10;99.90;;;;;;10503755;28;20571;-81
2022/09/17 17:46:43;;;;;;;2.55;1.88;;;20.30;99.90;;;;;;10519644;28;20681;-80
2022/09/17 17:51:47;;;;;;;7.43;2.40;;;20.10;99.90;;;;;;10538330;28;20197;-80
2022/09/17 17:56:49;;;;;;;5.00;2.20;;;18.60;99.90;;;;;;10501836;28;20668;-80
2022/09/17 18:01:52;;;;;;;5.00;2.75;;;20.00;99.90;;;;;;10499115;28;20645;-81
2022/09/17 18:06:54;;;;;;;3.50;2.17;;;20.80;99.90;;;;;;10519303;28;20764;-81
2022/09/17 18:11:57;;;;;;;3.83;2.85;;;20.80;99.90;;;;;;10503842;28;20257;-80
2022/09/17 18:16:59;;;;;;;3.10;1.80;;;21.30;99.90;;;;;;10518624;28;20771;-80
2022/09/17 18:22:02;;;;;;;3.35;2.30;;;21.30;99.90;;;;;;10535304;28;20716;-81
2022/09/17 18:27:05;;;;;;;5.50;2.45;;;21.30;99.90;;;;;;10516415;28;20233;-81
2022/09/17 18:32:08;;;;;;;3.38;2.30;;;21.40;99.90;;;;;;10533352;28;20279;-80
2022/09/17 18:37:10;;;;;;;4.00;2.47;;;21.30;99.90;;;;;;10536900;28;20201;-80
2022/09/17 18:42:12;;;;;;;2.90;2.47;;;21.30;99.90;;;;;;10517632;28;20193;-81
2022/09/17 18:47:16;;;;;;;4.25;2.45;;;21.30;99.90;;;;;;10499038;28;20763;-81
2022/09/17 18:52:19;;;;;;;3.13;2.38;;;21.30;99.90;;;;;;10483959;28;20272;-81
2022/09/17 18:57:21;;;;;;;4.97;2.78;;;21.40;99.90;;;;;;10474028;28;20202;-81
2022/09/17 19:02:24;;;;;;;4.53;3.03;;;21.30;99.90;;;;;;10491560;28;20641;-80
2022/09/17 19:07:26;;;;;;;7.82;3.45;;;21.30;99.90;;;;;;10517540;28;20239;-81
2022/09/17 19:12:29;;;;;;;4.93;2.63;;;13.40;99.90;;;;;;10534970;28;20688;-81
2022/09/17 19:17:31;;;;;;;6.63;3.47;;;12.80;99.90;;;;;;10493807;28;20195;-81
2022/09/17 19:22:34;;;;;;;3.63;2.93;;;13.20;99.90;;;;;;10509787;28;20601;-82
2022/09/17 19:27:36;;;;;;;5.77;3.13;;;18.30;99.90;;;;;;10533959;28;20233;-80
2022/09/17 19:32:43;;;;;;;14.77;3.03;;;19.80;99.90;;;;;;10530623;28;20654;-81
2022/09/17 19:37:45;;;;;;;4.45;2.63;;;20.30;99.90;;;;;;10515200;28;20202;-82
2022/09/17 19:42:54;;;;;;;7.63;3.42;;;20.60;99.90;;;;;;10505993;28;20272;-81
2022/09/17 19:48:00;;;;;;;5.07;3.40;;;20.70;99.90;;;;;;10492879;28;20651;-81
2022/09/17 19:53:02;;;;;;;4.05;2.58;;;20.90;99.90;;;;;;10489092;28;20321;-81
2022/09/17 19:58:05;;;;;;;4.95;2.88;;;20.80;99.90;;;;;;10513500;28;20241;-80
2022/09/17 20:03:07;;;;;;;3.88;2.72;;;20.80;99.90;;;;;;10175838;28;10000011;-80
2022/09/17 20:08:10;;;;;;;5.57;2.80;;;20.90;99.90;;;;;;10512248;28;20249;-80
2022/09/17 20:13:16;;;;;;;3.17;2.72;;;20.90;99.90;;;;;;10529625;28;20261;-80
2022/09/17 20:18:20;;;;;;;6.97;3.33;;;21.00;99.90;;;;;;10475836;28;20234;-81
2022/09/17 20:23:30;;;;;;;4.63;3.03;;;20.90;99.90;;;;;;10506843;28;20244;-81
2022/09/17 20:28:33;;;;;;;6.18;3.42;;;20.90;99.90;;;;;;10528349;28;20249;-80
2022/09/17 20:33:36;;;;;;;6.22;3.50;;;20.90;99.90;;;;;;10529692;28;20928;-81
2022/09/17 20:38:38;;;;;;;19.35;3.38;;;20.90;99.90;;;;;;10492884;28;20237;-81
2022/09/17 20:44:01;;;;;;;6.30;3.03;;;21.00;99.90;;;;;;10497792;28;20267;-82
2022/09/17 20:49:04;;;;;;;6.53;2.85;;;20.90;99.90;;;;;;10512759;28;20250;-81
2022/09/17 20:54:07;;;;;;;5.13;3.08;;;20.80;99.90;;;;;;10505574;28;20279;-81
2022/09/17 20:59:14;;;;;;;5.28;3.03;;;20.70;99.90;;;;;;10527497;28;20241;-82
2022/09/17 21:04:18;;;;;;;5.55;3.53;;;20.70;99.90;;;;;;10480548;28;20287;-81
2022/09/17 21:09:21;;;;;;;5.10;3.08;;;20.60;99.90;;;;;;10517622;28;20464;-81
2022/09/17 21:14:25;;;;;;;6.18;3.17;;;20.80;99.90;;;;;;10493951;28;20285;-81
2022/09/17 21:19:28;;;;;;;5.03;2.67;;;20.70;99.90;;;;;;10490761;28;20672;-81
2022/09/17 21:24:30;;;;;;;4.03;2.50;;;20.50;99.90;;;;;;10493165;28;20237;-82
2022/09/17 21:29:33;;;;;;;4.53;2.55;;;20.30;99.90;;;;;;10487568;28;20254;-81
2022/09/17 21:34:35;;;;;;;4.00;2.63;;;20.60;99.90;;;;;;10452337;28;20226;-81
2022/09/17 21:39:38;;;;;;;4.20;2.83;;;20.50;99.90;;;;;;10489919;28;20230;-82
2022/09/17 21:44:40;;;;;;;3.47;2.53;;;20.50;99.90;;;;;;10488662;28;20242;-81
2022/09/17 21:49:43;;;;;;;3.13;2.50;;;20.30;99.90;;;;;;10475206;28;20866;-81
2022/09/17 21:54:45;;;;;;;4.85;3.13;;;20.50;99.90;;;;;;10468896;28;20230;-81
2022/09/17 21:59:48;;;;;;;4.05;2.70;;;20.50;99.90;;;;;;10469102;28;20250;-81
2022/09/17 22:04:50;;;;;;;4.45;3.65;;;20.60;99.90;;;;;;10453648;28;20618;-81
2022/09/17 22:09:53;;;;;;;6.68;2.92;;;20.50;99.90;;;;;;10460140;28;20269;-80
2022/09/17 22:14:55;;;;;;;3.35;2.78;;;20.60;99.90;;;;;;10534043;28;20602;-82
2022/09/17 22:19:58;;;;;;;4.45;2.92;;;20.50;99.90;;;;;;10505550;28;20241;-81
2022/09/17 22:25:00;;;;;;;4.00;2.75;;;19.80;99.90;;;;;;10535941;28;20748;-81
2022/09/17 22:30:03;;;;;;;4.78;3.17;;;20.40;99.90;;;;;;10530405;28;20248;-81
2022/09/17 22:35:06;;;;;;;2.65;2.45;;;20.40;99.90;;;;;;10500878;28;20267;-83
2022/09/17 22:40:09;;;;;;;3.28;2.92;;;20.40;99.90;;;;;;10488907;28;20233;-82
2022/09/17 22:45:12;;;;;;;4.28;2.83;;;20.50;99.90;;;;;;10517880;28;20278;-81
2022/09/17 22:50:17;;;;;;;5.25;2.30;;;20.40;99.80;;;;;;10458704;28;20258;-81
2022/09/17 22:55:20;;;;;;;3.42;2.42;;;20.40;99.70;;;;;;10500227;28;20235;-81
2022/09/17 23:00:22;;;;;;;4.30;2.17;;;20.50;99.60;;;;;;10506456;28;20241;-80
2022/09/17 23:05:24;;;;;;;3.97;2.67;;;20.50;99.40;;;;;;10492900;28;20234;-81
2022/09/17 23:10:27;;;;;;;4.38;2.80;;;20.40;99.30;;;;;;10502112;28;20266;-81
2022/09/17 23:15:31;;;;;;;3.03;2.45;;;20.50;99.20;;;;;;10492072;28;20637;-81
2022/09/17 23:20:34;;;;;;;3.55;2.72;;;20.40;99.20;;;;;;10476953;28;20201;-80
2022/09/17 23:25:36;;;;;;;3.22;2.10;;;20.50;99.00;;;;;;10474115;28;20229;-80
2022/09/17 23:30:38;;;;;;;2.25;2.03;;;20.50;98.80;;;;;;10472676;28;20291;-80
2022/09/17 23:35:41;;;;;;;2.92;2.35;;;20.50;98.60;;;;;;10526529;28;20225;-80
2022/09/17 23:40:43;;;;;;;3.67;2.55;;;20.50;98.50;;;;;;10533146;28;20201;-81
2022/09/17 23:45:55;;;;;;;3.08;2.30;;;20.50;98.50;;;;;;10533837;28;20224;-80
2022/09/17 23:50:57;;;;;;;3.28;2.10;;;20.50;98.50;;;;;;10513981;28;20704;-80
2022/09/17 23:56:01;;;;;;;3.33;2.45;;;20.50;98.40;;;;;;10532851;28;20193;-80
